Terminal Aerodrome Forecast
Issued by NWS

Home | Current Version | Previous Version | Text Only | Print | Product List | Glossary On
Versions: 1 2 3 4 5 6 7 8 9 10 11 12
000
FTAK31 PAJN 061100
TAFAKT
TAF
PAKT 061120Z 0612/0712 32009KT P6SM SKC
     FM061800 32012KT P6SM SKC
     FM070400 32006KT P6SM SKC
      AMD LTD TO CLD VIS AND WIND 0612/0615=

USA.gov is the U.S. government's official web portal to all federal, state and local government web resources and services.